Waubay, South Dakota
Current Conditions -  °F | °C
As of 10:53 PM on Monday 20 Oct 2014 (Local Time) from KATY Reporting Station
Clear Clear  
Wind Chill: 42°   Ceiling: Unl
Heat Index: 42°   Visibility: 10mi
Dew Point: 36°   Wind: 3mph
Humidity: 79%   Direction: 160°SSE
Pressure: 30.05"   Gusts: NA
Location:  45.33°N, 97.31°W
Report Text: KATY 210353Z AUTO 16003KT 10SM CLR 06/02 A3005 RMK AO2 SLP184 T00560022
Loading
Personal Weather Stations






























Interactive Weather Map
Tropical Storm Tracking
New forecast layout! Learn more

10-Day Weather Forecast

Advertisements
Track Severe Weather on mobile